Terminal Aerodrome Forecast
Issued by NWS

Home | Current Version | Previous Version | Text Only | Print | Product List | Glossary On
Versions: 1 2 3 4 5 6 7 8 9 10 11 12 13 14 15 16 17 18 19 20 21 22 23 24
257
FTUS41 KOKX 110525
TAFHPN
TAF
KHPN 110525Z 1106/1206 28009KT P6SM BKN040
     FM111100 29012G20KT P6SM BKN035
     FM111500 30017G27KT P6SM BKN050
     FM120300 30013G21KT P6SM FEW040
      AMD NOT SKED=

USA.gov is the U.S. government's official web portal to all federal, state and local government web resources and services.